Time;durP1;ratioP1;P1;durP2;ratioP2;P2;SDS_P1;SDS_P2;PMS_P1;PMS_P2;Temp;Humidity;BMP_temperature;BMP_pressure;BME280_temperature;BME280_humidity;BME280_pressure;Samples;Min_cycle;Max_cycle;Signal;HPM_P1;HPM_P2
2021/12/23 00:00:35;;;;;;;46.83;24.75;;;;;;;-0.99;100.00;101663.66;5016116;28;20045;-71
2021/12/23 00:03:01;;;;;;;54.78;26.23;;;;;;;-0.86;100.00;101663.66;5007848;28;20034;-72
2021/12/23 00:05:26;;;;;;;48.22;24.45;;;;;;;-0.68;100.00;101671.06;5014909;28;20639;-69
2021/12/23 00:07:51;;;;;;;48.63;24.60;;;;;;;-0.71;100.00;101674.97;5016218;28;20478;-70
2021/12/23 00:10:17;;;;;;;52.60;24.30;;;;;;;-0.92;100.00;101672.53;5030426;28;20030;-70
2021/12/23 00:12:45;;;;;;;53.65;24.77;;;;;;;-0.82;100.00;101654.16;5012773;28;20450;-70
2021/12/23 00:15:23;;;;;;;47.72;24.73;;;;;;;-0.94;100.00;101648.63;5013511;28;20049;-71
2021/12/23 00:18:03;;;;;;;47.63;23.13;;;;;;;-1.08;100.00;101622.91;5013694;28;20048;-69
2021/12/23 00:25:47;;;;;;;49.83;24.65;;;;;;;-1.06;100.00;101602.09;5015060;28;21070;-71
2021/12/23 00:28:12;;;;;;;49.75;24.50;;;;;;;-1.14;100.00;101588.94;5015244;28;20135;-72
2021/12/23 00:30:38;;;;;;;50.05;25.65;;;;;;;-1.05;100.00;101585.00;5015664;28;20642;-72
2021/12/23 00:33:03;;;;;;;51.60;25.90;;;;;;;-0.97;100.00;101583.97;5015052;28;20489;-71
2021/12/23 00:35:29;;;;;;;53.15;24.60;;;;;;;-0.92;100.00;101608.28;5015390;28;20580;-72
2021/12/23 00:38:01;;;;;;;57.67;26.55;;;;;;;-0.80;100.00;101619.16;5014858;28;20041;-71
2021/12/23 00:40:27;;;;;;;50.65;24.95;;;;;;;-0.80;100.00;101616.50;5015558;28;20041;-71
2021/12/23 00:42:53;;;;;;;49.17;24.85;;;;;;;-0.95;100.00;101625.56;5014793;28;20561;-72
2021/12/23 00:45:20;;;;;;;58.58;25.52;;;;;;;-0.83;100.00;101620.41;5015620;28;20041;-72
2021/12/23 00:47:45;;;;;;;53.17;25.45;;;;;;;-0.87;100.00;101600.44;5034234;28;20064;-71
2021/12/23 00:50:11;;;;;;;48.83;25.08;;;;;;;-0.93;100.00;101578.00;5033514;28;20500;-72
2021/12/23 00:52:37;;;;;;;50.15;25.95;;;;;;;-0.77;100.00;101574.03;5034291;28;20399;-71
2021/12/23 00:55:05;;;;;;;49.88;26.15;;;;;;;-0.78;100.00;101571.59;5033621;28;20492;-72
2021/12/23 00:57:32;;;;;;;52.88;25.15;;;;;;;-0.73;100.00;101569.06;5033226;28;20040;-71
2021/12/23 00:59:58;;;;;;;53.35;25.65;;;;;;;-0.65;100.00;101566.16;5032816;28;20041;-71
2021/12/23 01:02:28;;;;;;;55.30;26.45;;;;;;;-0.67;100.00;101589.66;5034139;28;20052;-70
2021/12/23 01:04:54;;;;;;;56.53;25.17;;;;;;;-0.69;100.00;101592.56;5033067;28;20101;-71
2021/12/23 01:07:20;;;;;;;54.78;27.02;;;;;;;-0.63;100.00;101590.09;5015220;28;20409;-71
2021/12/23 01:09:45;;;;;;;55.65;26.27;;;;;;;-0.85;100.00;101568.09;5033184;28;20029;-71
2021/12/23 01:12:14;;;;;;;56.83;27.83;;;;;;;-0.82;100.00;101556.97;5034074;28;20452;-72
2021/12/23 01:14:54;;;;;;;52.20;25.65;;;;;;;-0.66;100.00;101591.31;5034932;28;20041;-71
2021/12/23 01:19:51;;;;;;;54.42;27.35;;;;;;;-0.83;100.00;101549.97;5034183;28;20107;-71
2021/12/23 01:22:18;;;;;;;55.97;25.13;;;;;;;-0.69;100.00;101554.25;5033197;28;20033;-71
2021/12/23 01:24:44;;;;;;;52.22;24.77;;;;;;;-0.81;100.00;101550.59;5031683;28;20041;-72
2021/12/23 01:27:10;;;;;;;54.20;26.45;;;;;;;-0.77;100.00;101541.09;5031621;28;20091;-71
2021/12/23 01:29:35;;;;;;;53.97;26.70;;;;;;;-0.60;100.00;101536.09;5033028;28;20079;-71
2021/12/23 01:32:04;;;;;;;50.10;25.50;;;;;;;-0.70;100.00;101566.81;5033182;28;20045;-71
2021/12/23 01:34:30;;;;;;;55.17;25.85;;;;;;;-0.58;100.00;101568.81;5033371;28;20045;-71
2021/12/23 01:36:56;;;;;;;53.30;24.92;;;;;;;-0.74;100.00;101551.38;5033489;28;20040;-71
2021/12/23 01:39:22;;;;;;;53.53;26.08;;;;;;;-0.69;100.00;101532.81;5034124;28;20041;-71
2021/12/23 01:41:47;;;;;;;56.38;25.75;;;;;;;-0.57;100.00;101544.50;5034261;28;20550;-71
2021/12/23 01:44:13;;;;;;;55.60;25.95;;;;;;;-0.72;100.00;101522.53;5031571;28;20129;-71
2021/12/23 01:46:38;;;;;;;52.97;25.95;;;;;;;-0.61;100.00;101540.63;5014359;28;20555;-71
2021/12/23 01:49:04;;;;;;;54.17;25.30;;;;;;;-0.67;100.00;101525.38;5024712;28;20119;-71
2021/12/23 01:51:30;;;;;;;50.85;25.77;;;;;;;-0.66;100.00;101516.31;5014211;28;20673;-71
2021/12/23 01:53:55;;;;;;;54.28;25.60;;;;;;;-0.69;100.00;101528.28;5014868;28;20061;-71
2021/12/23 01:56:24;;;;;;;50.67;24.85;;;;;;;-0.54;100.00;101533.38;5013770;28;20037;-71
2021/12/23 01:58:49;;;;;;;50.65;24.48;;;;;;;-0.65;100.00;101534.03;5014191;28;20069;-71
2021/12/23 02:01:15;;;;;;;57.90;25.92;;;;;;;-0.71;100.00;101526.84;5012084;28;20046;-70
2021/12/23 02:03:40;;;;;;;55.33;25.95;;;;;;;-0.61;100.00;101555.84;5030742;28;20098;-71
2021/12/23 02:06:06;;;;;;;57.33;27.00;;;;;;;-0.69;100.00;101551.56;5032542;28;20217;-70
2021/12/23 02:08:33;;;;;;;53.35;26.23;;;;;;;-0.65;100.00;101527.84;5033016;28;20040;-70
2021/12/23 02:11:00;;;;;;;53.28;26.13;;;;;;;-0.67;100.00;101509.31;5033201;28;20643;-70
2021/12/23 02:13:25;;;;;;;59.70;27.02;;;;;;;-0.60;100.00;101504.75;5031119;28;20064;-70
2021/12/23 02:15:50;;;;;;;55.72;26.30;;;;;;;-0.64;100.00;101498.19;5032866;28;20110;-70
2021/12/23 02:18:16;;;;;;;53.08;26.70;;;;;;;-0.72;100.00;101479.69;5032749;28;20051;-71
2021/12/23 02:20:42;;;;;;;54.65;27.83;;;;;;;-0.50;100.00;101489.03;5031774;28;20045;-71
2021/12/23 02:23:08;;;;;;;53.38;26.58;;;;;;;-0.51;100.00;101479.34;5035820;28;20091;-72
2021/12/23 02:25:34;;;;;;;53.58;27.23;;;;;;;-0.52;100.00;101491.13;5037012;28;20040;-71
2021/12/23 02:28:07;;;;;;;54.92;26.08;;;;;;;-0.58;100.00;101485.78;5036612;28;20044;-72
2021/12/23 02:30:35;;;;;;;55.88;28.13;;;;;;;-0.57;100.00;101498.97;5035962;28;20048;-72
2021/12/23 02:33:00;;;;;;;53.28;26.80;;;;;;;-0.60;100.00;101504.75;5036410;28;20439;-71
2021/12/23 02:35:26;;;;;;;60.80;27.67;;;;;;;-0.66;100.00;101494.91;5037070;28;20033;-72
2021/12/23 02:37:52;;;;;;;56.72;27.45;;;;;;;-0.74;100.00;101471.03;5034691;28;20076;-72
2021/12/23 02:40:33;;;;;;;56.50;27.35;;;;;;;-0.72;100.00;101463.63;5036348;28;20144;-72
2021/12/23 02:43:10;;;;;;;56.10;27.40;;;;;;;-0.63;100.00;101480.25;5036558;28;20041;-71
2021/12/23 02:45:35;;;;;;;53.22;26.35;;;;;;;-0.81;100.00;101468.38;5018203;28;20052;-71
2021/12/23 02:48:01;;;;;;;56.40;26.73;;;;;;;-0.85;100.00;101471.69;5036527;28;20040;-71
2021/12/23 02:50:26;;;;;;;57.50;28.63;;;;;;;-0.82;100.00;101468.59;5017536;28;20048;-71
2021/12/23 02:52:53;;;;;;;55.85;26.92;;;;;;;-0.98;100.00;101449.31;5016228;28;20040;-71
2021/12/23 02:55:19;;;;;;;57.47;28.83;;;;;;;-0.97;100.00;101456.28;5016534;28;20059;-71
2021/12/23 02:57:44;;;;;;;54.60;26.35;;;;;;;-0.94;100.00;101457.72;5016054;28;20033;-71
2021/12/23 03:00:10;;;;;;;56.00;27.70;;;;;;;-0.90;100.00;101464.31;5016358;28;20056;-71
2021/12/23 03:02:40;;;;;;;58.65;27.50;;;;;;;-1.08;100.00;101459.63;4998237;28;20095;-71
2021/12/23 03:05:07;;;;;;;53.17;27.63;;;;;;;-0.93;100.00;101454.84;5016830;28;20406;-71
2021/12/23 03:07:33;;;;;;;52.92;26.60;;;;;;;-0.96;100.00;101441.03;5016536;28;20044;-72
2021/12/23 03:09:58;;;;;;;54.05;27.23;;;;;;;-1.05;100.00;101442.31;5016816;28;20380;-71
2021/12/23 03:12:24;;;;;;;57.47;26.65;;;;;;;-1.05;100.00;101448.50;5016349;28;20045;-73
2021/12/23 03:14:49;;;;;;;57.33;26.90;;;;;;;-0.95;100.00;101448.06;5015745;28;20075;-71
2021/12/23 03:17:15;;;;;;;51.22;26.80;;;;;;;-1.00;100.00;101451.34;5015981;28;20072;-72
2021/12/23 03:19:40;;;;;;;59.20;27.70;;;;;;;-1.07;100.00;101458.59;5016625;28;20044;-70
2021/12/23 03:22:06;;;;;;;53.78;27.02;;;;;;;-0.99;100.00;101469.09;5016136;28;20046;-71
2021/12/23 03:24:31;;;;;;;56.25;27.33;;;;;;;-0.94;100.00;101461.22;5016628;28;20046;-71
2021/12/23 03:26:56;;;;;;;55.28;27.30;;;;;;;-0.99;100.00;101450.34;5014395;28;20389;-71
2021/12/23 03:29:22;;;;;;;56.22;27.77;;;;;;;-1.06;100.00;101438.81;5016017;28;20052;-71
2021/12/23 03:31:47;;;;;;;59.70;28.75;;;;;;;-1.03;100.00;101427.69;5015375;28;20030;-71
2021/12/23 03:34:13;;;;;;;59.75;28.48;;;;;;;-0.97;100.00;101418.81;5012911;28;20239;-71
2021/12/23 03:36:38;;;;;;;66.22;29.42;;;;;;;-0.97;100.00;101412.63;5015578;28;20033;-71
2021/12/23 03:39:04;;;;;;;60.35;29.00;;;;;;;-0.97;100.00;101413.44;5015681;28;20245;-70
2021/12/23 03:41:30;;;;;;;59.22;28.40;;;;;;;-0.98;100.00;101411.00;5014137;28;20049;-71
2021/12/23 03:43:56;;;;;;;63.28;28.05;;;;;;;-0.87;100.00;101401.47;5014411;28;20361;-71
2021/12/23 03:46:21;;;;;;;53.70;27.63;;;;;;;-0.95;100.00;101395.34;5026453;28;20094;-71
2021/12/23 03:48:47;;;;;;;59.67;28.17;;;;;;;-0.98;100.00;101393.09;5028348;28;20045;-71
2021/12/23 03:51:12;;;;;;;55.50;27.48;;;;;;;-1.06;100.00;101377.25;5015195;28;20102;-71
2021/12/23 03:53:38;;;;;;;55.80;28.20;;;;;;;-1.04;100.00;101369.84;5014321;28;20434;-71
2021/12/23 03:56:04;;;;;;;58.15;28.35;;;;;;;-1.01;100.00;101368.59;5014236;28;20564;-71
2021/12/23 03:58:29;;;;;;;59.63;28.50;;;;;;;-1.01;100.00;101364.06;5014847;28;20077;-71
2021/12/23 04:00:55;;;;;;;58.00;27.48;;;;;;;-1.05;100.00;101373.53;5017922;28;20045;-71
2021/12/23 04:03:20;;;;;;;59.38;28.23;;;;;;;-1.11;100.00;101373.59;5013826;28;20046;-71
2021/12/23 04:05:46;;;;;;;58.83;28.48;;;;;;;-1.26;100.00;101352.44;5034600;28;20095;-70
2021/12/23 04:08:11;;;;;;;57.95;28.92;;;;;;;-1.18;100.00;101341.50;5035908;28;20078;-71
2021/12/23 04:10:38;;;;;;;59.70;27.40;;;;;;;-1.12;100.00;101351.34;5045760;28;20522;-70
2021/12/23 04:13:03;;;;;;;53.08;26.83;;;;;;;-1.22;100.00;101345.63;5045821;28;20040;-71
2021/12/23 04:15:29;;;;;;;58.05;28.60;;;;;;;-1.15;100.00;101333.88;5043189;28;20083;-72
2021/12/23 04:17:54;;;;;;;57.60;27.08;;;;;;;-1.18;100.00;101331.63;5044567;28;20045;-70
2021/12/23 04:20:23;;;;;;;54.22;25.80;;;;;;;-1.11;100.00;101315.50;5045272;28;20379;-70
2021/12/23 04:22:53;;;;;;;50.28;25.48;;;;;;;-1.15;100.00;101314.31;5045628;28;20298;-70
2021/12/23 04:25:21;;;;;;;54.13;26.70;;;;;;;-1.03;100.00;101309.91;5045391;28;20419;-71
2021/12/23 04:27:49;;;;;;;50.75;25.63;;;;;;;-1.10;100.00;101290.41;5042748;28;20048;-71
2021/12/23 04:30:15;;;;;;;58.72;28.02;;;;;;;-1.08;100.00;101285.66;5041284;28;20414;-71
2021/12/23 04:32:41;;;;;;;57.60;27.30;;;;;;;-1.03;100.00;101296.53;5042451;28;20040;-71
2021/12/23 04:35:07;;;;;;;58.33;27.08;;;;;;;-1.13;100.00;101312.25;5041720;28;20041;-70
2021/12/23 04:37:33;;;;;;;51.22;26.88;;;;;;;-0.98;100.00;101304.75;5024562;28;20040;-71
2021/12/23 04:39:58;;;;;;;56.72;26.20;;;;;;;-0.93;100.00;101299.56;5023982;28;20045;-70
2021/12/23 04:42:24;;;;;;;58.00;28.88;;;;;;;-0.96;100.00;101286.63;5025715;28;20620;-71
2021/12/23 04:44:49;;;;;;;53.88;27.52;;;;;;;-1.06;100.00;101280.09;5042125;28;20061;-71
2021/12/23 04:47:15;;;;;;;59.53;28.00;;;;;;;-0.89;100.00;101283.88;5038611;28;20034;-71
2021/12/23 04:49:40;;;;;;;57.22;28.15;;;;;;;-0.92;100.00;101282.47;5036667;28;20056;-71
2021/12/23 04:52:06;;;;;;;55.53;26.90;;;;;;;-0.93;100.00;101280.84;5048292;28;20028;-71
2021/12/23 04:54:31;;;;;;;51.15;27.50;;;;;;;-0.84;100.00;101272.50;5047968;28;20507;-70
2021/12/23 04:56:57;;;;;;;57.40;27.08;;;;;;;-0.81;100.00;101293.53;5046825;28;20458;-71
2021/12/23 04:59:22;;;;;;;59.40;28.27;;;;;;;-0.80;100.00;101300.50;5047407;28;20066;-70
2021/12/23 05:01:49;;;;;;;59.47;27.98;;;;;;;-0.84;100.00;101300.13;5048087;28;20045;-71
2021/12/23 05:04:15;;;;;;;63.85;28.25;;;;;;;-0.87;100.00;101308.59;5046026;28;20052;-70
2021/12/23 05:06:41;;;;;;;57.95;28.48;;;;;;;-0.95;100.00;101323.06;5048765;28;20107;-69
2021/12/23 05:09:06;;;;;;;55.20;28.05;;;;;;;-0.86;100.00;101320.13;5047890;28;20083;-70
2021/12/23 05:11:32;;;;;;;56.22;28.70;;;;;;;-0.88;100.00;101300.78;5042331;28;20544;-70
2021/12/23 05:13:57;;;;;;;59.58;29.33;;;;;;;-0.80;100.00;101304.00;5028377;28;20072;-70
2021/12/23 05:16:22;;;;;;;56.10;28.63;;;;;;;-0.74;100.00;101299.63;5032145;28;20048;-70
2021/12/23 05:18:48;;;;;;;63.60;29.38;;;;;;;-0.79;100.00;101297.59;5025459;28;20033;-70
2021/12/23 05:21:13;;;;;;;59.08;29.23;;;;;;;-0.77;100.00;101294.72;5026089;28;20158;-70
2021/12/23 05:23:39;;;;;;;60.53;29.17;;;;;;;-0.82;100.00;101278.47;5025688;28;20251;-70
2021/12/23 05:26:06;;;;;;;59.65;27.67;;;;;;;-0.84;100.00;101277.88;5024383;28;20061;-70
2021/12/23 05:28:35;;;;;;;61.13;28.42;;;;;;;-0.77;100.00;101267.94;5023872;28;20041;-69
2021/12/23 05:31:01;;;;;;;57.55;27.85;;;;;;;-0.99;100.00;101271.00;5022584;28;20056;-69
2021/12/23 05:33:26;;;;;;;58.35;28.77;;;;;;;-0.82;100.00;101265.09;5022053;28;20047;-69
2021/12/23 05:35:52;;;;;;;53.22;27.60;;;;;;;-0.82;100.00;101275.81;5020327;28;20067;-69
2021/12/23 05:38:17;;;;;;;73.18;29.35;;;;;;;-0.97;100.00;101263.53;5018540;28;20125;-69
2021/12/23 05:40:43;;;;;;;56.90;28.75;;;;;;;-0.80;100.00;101233.56;5019571;28;20443;-70
2021/12/23 05:43:09;;;;;;;62.05;29.30;;;;;;;-0.85;100.00;101238.75;5018538;28;20041;-69
2021/12/23 05:45:35;;;;;;;62.00;28.23;;;;;;;-0.84;100.00;101246.59;5024234;28;20511;-70
2021/12/23 05:48:00;;;;;;;58.17;28.48;;;;;;;-0.76;100.00;101243.59;5020491;28;20541;-70
2021/12/23 05:50:26;;;;;;;55.50;28.88;;;;;;;-0.85;100.00;101244.94;5022195;28;20046;-70
2021/12/23 05:52:52;;;;;;;62.88;28.30;;;;;;;-0.75;100.00;101252.50;5024449;28;20064;-70
2021/12/23 05:55:19;;;;;;;58.10;28.50;;;;;;;-0.76;100.00;101246.28;5032675;28;20360;-70
2021/12/23 05:57:45;;;;;;;62.78;29.38;;;;;;;-0.71;100.00;101234.94;5030846;28;20041;-71
2021/12/23 06:00:20;;;;;;;56.45;27.60;;;;;;;-0.80;100.00;101252.31;5021405;28;20383;-69
2021/12/23 06:02:46;;;;;;;59.50;28.63;;;;;;;-0.87;100.00;101235.47;5023103;28;20038;-70
2021/12/23 06:05:12;;;;;;;59.63;29.08;;;;;;;-0.87;100.00;101239.00;5023254;28;20068;-70
2021/12/23 06:07:39;;;;;;;61.35;28.23;;;;;;;-0.78;100.00;101243.03;5003556;28;20477;-69
2021/12/23 06:10:05;;;;;;;62.50;30.35;;;;;;;-0.79;100.00;101237.88;5030271;28;20052;-70
2021/12/23 06:12:31;;;;;;;61.88;29.83;;;;;;;-0.75;100.00;101233.75;5024922;28;21103;-70
2021/12/23 06:14:56;;;;;;;65.10;29.38;;;;;;;-0.77;100.00;101241.16;5037683;28;20143;-70
2021/12/23 06:17:22;;;;;;;59.55;29.35;;;;;;;-0.81;100.00;101239.97;5019355;28;20678;-70
2021/12/23 06:19:47;;;;;;;60.15;29.10;;;;;;;-0.89;100.00;101235.69;5022230;28;20068;-70
2021/12/23 06:22:13;;;;;;;54.97;27.52;;;;;;;-0.87;100.00;101214.03;5037547;28;20086;-70
2021/12/23 06:24:43;;;;;;;60.22;30.05;;;;;;;-0.88;100.00;101207.88;5037803;28;20391;-71
2021/12/23 06:27:09;;;;;;;61.33;29.00;;;;;;;-0.73;100.00;101216.41;5037110;28;20040;-68
2021/12/23 06:29:34;;;;;;;58.65;30.17;;;;;;;-0.81;100.00;101207.84;5036678;28;20036;-68
2021/12/23 06:31:59;;;;;;;64.32;31.48;;;;;;;-0.88;100.00;101207.06;5034264;28;20477;-71
2021/12/23 06:34:25;;;;;;;58.58;29.27;;;;;;;-0.85;100.00;101203.94;5031466;28;20054;-68
2021/12/23 06:36:50;;;;;;;66.80;31.30;;;;;;;-0.82;100.00;101203.50;5019114;28;20056;-72
2021/12/23 06:39:16;;;;;;;66.90;30.55;;;;;;;-0.84;100.00;101200.22;5018964;28;20037;-71
2021/12/23 06:41:41;;;;;;;71.85;31.67;;;;;;;-0.84;100.00;101184.16;5016947;28;20398;-69
2021/12/23 06:44:07;;;;;;;69.13;32.30;;;;;;;-0.84;100.00;101194.88;5029709;28;20205;-70
2021/12/23 06:46:32;;;;;;;60.63;30.08;;;;;;;-0.78;100.00;101196.69;5026417;28;20502;-69
2021/12/23 06:48:57;;;;;;;62.33;30.15;;;;;;;-0.90;100.00;101185.88;5019047;28;20526;-70
2021/12/23 06:51:26;;;;;;;69.90;31.75;;;;;;;-0.93;100.00;101178.28;5012341;28;20044;-69
2021/12/23 06:53:52;;;;;;;64.50;29.83;;;;;;;-0.98;100.00;101180.78;5022870;28;20161;-69
2021/12/23 06:56:18;;;;;;;65.60;31.00;;;;;;;-0.94;100.00;101180.13;5028282;28;20312;-72
2021/12/23 06:58:48;;;;;;;68.55;30.58;;;;;;;-0.82;100.00;101195.47;5024683;28;20037;-69
2021/12/23 07:01:17;;;;;;;66.88;32.08;;;;;;;-0.84;100.00;101200.22;5023630;28;20049;-71
2021/12/23 07:04:35;;;;;;;63.28;30.67;;;;;;;-0.81;100.00;101205.16;5014596;28;20124;-71
2021/12/23 07:06:36;;;;;;;65.43;30.30;;;;;;;-0.82;100.00;101214.22;5021888;28;20239;-70
2021/12/23 07:09:05;;;;;;;68.53;30.98;;;;;;;-0.85;100.00;101210.13;5016295;28;20041;-70
2021/12/23 07:11:31;;;;;;;61.58;29.83;;;;;;;-0.81;100.00;101208.66;5022800;28;20044;-70
2021/12/23 07:13:57;;;;;;;68.90;31.83;;;;;;;-0.83;100.00;101209.91;5026146;28;20572;-70
2021/12/23 07:16:23;;;;;;;72.13;32.75;;;;;;;-0.76;100.00;101221.38;5026520;28;20033;-69
2021/12/23 07:18:49;;;;;;;70.90;30.13;;;;;;;-0.80;100.00;101209.47;5024073;28;20522;-70
2021/12/23 07:21:15;;;;;;;64.45;31.60;;;;;;;-0.64;100.00;101202.72;5025684;28;20432;-70
2021/12/23 07:23:40;;;;;;;73.05;32.67;;;;;;;-0.66;100.00;101210.19;5026763;28;20833;-70
2021/12/23 07:26:06;;;;;;;67.22;32.50;;;;;;;-0.72;100.00;101209.19;5022988;28;20041;-70
2021/12/23 07:28:31;;;;;;;68.70;33.75;;;;;;;-0.55;100.00;101218.31;5028109;28;20072;-70
2021/12/23 07:30:56;;;;;;;65.75;31.30;;;;;;;-0.60;100.00;101226.19;5024851;28;20049;-69
2021/12/23 07:33:22;;;;;;;64.88;30.45;;;;;;;-0.59;100.00;101227.81;5027013;28;20041;-70
2021/12/23 07:35:48;;;;;;;62.65;31.48;;;;;;;-0.52;100.00;101228.59;5025034;28;20308;-70
2021/12/23 07:38:14;;;;;;;69.35;32.35;;;;;;;-0.50;100.00;101236.38;5014978;28;20046;-70
2021/12/23 07:40:40;;;;;;;68.20;31.52;;;;;;;-0.57;100.00;101232.97;5015220;28;20557;-69
2021/12/23 07:43:20;;;;;;;64.43;31.13;;;;;;;-0.54;100.00;101229.84;5003454;28;20041;-70
2021/12/23 07:45:46;;;;;;;69.10;34.10;;;;;;;-0.52;100.00;101223.22;5019103;28;20185;-70
2021/12/23 07:48:12;;;;;;;72.95;34.08;;;;;;;-0.57;100.00;101220.38;5029821;28;20052;-71
2021/12/23 07:50:40;;;;;;;68.18;33.15;;;;;;;-0.51;100.00;101219.50;5024957;28;20277;-70
2021/12/23 07:53:06;;;;;;;78.97;37.40;;;;;;;-0.40;100.00;101211.78;5019373;28;20574;-70
2021/12/23 07:55:31;;;;;;;74.95;36.42;;;;;;;-0.47;100.00;101215.34;5018993;28;20037;-70
2021/12/23 07:57:56;;;;;;;71.50;36.72;;;;;;;-0.60;100.00;101215.47;5014191;28;20186;-70
2021/12/23 08:00:22;;;;;;;73.47;35.92;;;;;;;-0.42;100.00;101219.22;5014303;28;20041;-70
2021/12/23 08:02:48;;;;;;;72.75;37.50;;;;;;;-0.42;100.00;101221.91;5014303;28;20406;-71
2021/12/23 08:05:13;;;;;;;78.25;36.95;;;;;;;-0.39;100.00;101229.50;5012675;28;20042;-70
2021/12/23 08:07:38;;;;;;;81.57;39.78;;;;;;;-0.33;100.00;101215.22;5014180;28;20543;-71
2021/12/23 08:10:05;;;;;;;82.05;39.05;;;;;;;-0.31;100.00;101231.88;5013742;28;20076;-70
2021/12/23 08:12:30;;;;;;;77.63;37.65;;;;;;;-0.36;100.00;101226.38;5011810;28;20064;-70
2021/12/23 08:14:55;;;;;;;72.00;38.20;;;;;;;-0.37;100.00;101230.09;5014160;28;20428;-70
2021/12/23 08:17:21;;;;;;;81.20;38.38;;;;;;;-0.34;100.00;101213.56;5014205;28;20091;-71
2021/12/23 08:19:46;;;;;;;81.95;37.67;;;;;;;-0.33;100.00;101216.03;5014333;28;20052;-71
2021/12/23 08:22:12;;;;;;;78.03;38.00;;;;;;;-0.16;100.00;101210.09;5014597;28;20049;-71
2021/12/23 08:24:37;;;;;;;72.70;36.67;;;;;;;-0.24;100.00;101197.78;5014435;28;20045;-71
2021/12/23 08:27:05;;;;;;;69.03;34.78;;;;;;;-0.26;100.00;101199.91;5013322;28;20049;-71
2021/12/23 08:29:30;;;;;;;68.45;32.45;;;;;;;-0.17;100.00;101190.50;5014193;28;20042;-70
2021/12/23 08:31:55;;;;;;;69.20;34.35;;;;;;;-0.15;100.00;101184.91;5014462;28;20152;-69
2021/12/23 08:34:23;;;;;;;68.07;32.15;;;;;;;-0.08;100.00;101186.47;5013401;28;20712;-70
2021/12/23 08:36:49;;;;;;;65.22;31.75;;;;;;;0.01;100.00;101180.81;5013485;28;20536;-72
2021/12/23 08:39:15;;;;;;;64.43;32.20;;;;;;;-0.08;100.00;101181.13;5011400;28;20449;-73
2021/12/23 08:41:41;;;;;;;72.35;31.98;;;;;;;-0.09;100.00;101163.41;5012808;28;20045;-71
2021/12/23 08:44:06;;;;;;;69.65;31.88;;;;;;;0.02;100.00;101169.03;5012088;28;20045;-70
2021/12/23 08:46:32;;;;;;;71.82;32.97;;;;;;;-0.13;100.00;101166.75;5024228;28;20068;-71
2021/12/23 08:48:57;;;;;;;69.80;32.83;;;;;;;-0.08;100.00;101158.84;5025471;28;20049;-70
2021/12/23 08:51:23;;;;;;;69.70;32.50;;;;;;;0.01;100.00;101141.41;5013776;28;20068;-70
2021/12/23 08:53:48;;;;;;;62.95;30.63;;;;;;;-0.10;100.00;101145.66;5012743;28;20142;-70
2021/12/23 08:56:14;;;;;;;68.80;31.20;;;;;;;-0.02;100.00;101136.50;5012566;28;20098;-70
2021/12/23 08:58:42;;;;;;;73.22;31.92;;;;;;;0.04;100.00;101134.78;5014120;28;20054;-70
2021/12/23 09:01:08;;;;;;;62.20;30.70;;;;;;;0.08;100.00;101125.22;5014169;28;20116;-70
2021/12/23 09:03:34;;;;;;;72.47;33.88;;;;;;;0.10;100.00;101123.16;5031200;28;20511;-70
2021/12/23 09:06:00;;;;;;;72.78;32.90;;;;;;;0.17;100.00;101113.13;5032242;28;20442;-70
2021/12/23 09:08:26;;;;;;;70.43;32.25;;;;;;;0.29;100.00;101116.69;5034488;28;20354;-70
2021/12/23 09:10:53;;;;;;;66.85;30.50;;;;;;;0.25;100.00;101115.50;5033926;28;20162;-70
2021/12/23 09:13:19;;;;;;;70.95;30.70;;;;;;;0.13;100.00;101109.28;5034865;28;20075;-69
2021/12/23 09:15:45;;;;;;;68.93;32.22;;;;;;;0.11;100.00;101108.69;5033268;28;20515;-69
2021/12/23 09:18:11;;;;;;;66.13;31.25;;;;;;;0.18;100.00;101098.72;5031005;28;20405;-70
2021/12/23 09:20:37;;;;;;;66.20;31.45;;;;;;;0.27;100.00;101086.59;5032694;28;20131;-70
2021/12/23 09:23:02;;;;;;;72.20;31.10;;;;;;;0.31;100.00;101087.75;5033777;28;20329;-70
2021/12/23 09:25:32;;;;;;;69.20;33.45;;;;;;;0.31;100.00;101078.91;5034569;28;20044;-70
2021/12/23 09:28:09;;;;;;;67.93;31.08;;;;;;;0.32;100.00;101073.31;5032351;28;20052;-70
2021/12/23 09:33:19;;;;;;;67.85;30.58;;;;;;;0.43;100.00;101066.31;5033196;28;20041;-70
2021/12/23 09:35:45;;;;;;;66.13;33.17;;;;;;;0.45;100.00;101046.28;5031621;28;20031;-70
2021/12/23 09:38:11;;;;;;;70.07;32.08;;;;;;;0.48;100.00;101045.00;5033030;28;20452;-70
2021/12/23 09:40:37;;;;;;;67.63;31.30;;;;;;;0.70;100.00;101053.31;5032875;28;20076;-70
2021/12/23 09:43:07;;;;;;;68.85;30.38;;;;;;;0.80;100.00;101064.28;5032802;28;20048;-70
2021/12/23 09:45:33;;;;;;;67.63;30.73;;;;;;;0.56;100.00;101062.63;5032588;28;20037;-70
2021/12/23 09:48:02;;;;;;;64.55;30.17;;;;;;;0.63;100.00;101079.44;5032556;28;20128;-70
2021/12/23 09:50:32;;;;;;;69.72;32.35;;;;;;;0.57;100.00;101075.00;5032446;28;20044;-70
2021/12/23 09:53:01;;;;;;;69.47;31.13;;;;;;;0.71;100.00;101056.81;5030298;28;20044;-69
2021/12/23 09:55:27;;;;;;;64.07;29.92;;;;;;;0.78;100.00;101054.81;5031280;28;20056;-70
2021/12/23 09:57:55;;;;;;;72.00;32.58;;;;;;;0.84;100.00;101054.72;5032689;28;20048;-72
2021/12/23 10:00:24;;;;;;;69.65;33.67;;;;;;;0.95;100.00;101044.19;5032967;28;20036;-72
2021/12/23 10:02:50;;;;;;;73.55;32.28;;;;;;;1.13;100.00;101038.69;5020768;28;20045;-72
2021/12/23 10:05:18;;;;;;;62.63;29.65;;;;;;;1.12;100.00;101029.00;5012648;28;20091;-72
2021/12/23 10:07:46;;;;;;;66.40;29.50;;;;;;;1.34;100.00;101032.69;5012622;28;20044;-72
2021/12/23 10:10:25;;;;;;;66.82;30.80;;;;;;;1.12;100.00;101031.69;5012034;28;20425;-72
2021/12/23 10:26:46;;;;;;;66.95;31.35;;;;;;;1.19;100.00;101021.59;5023579;28;20029;-72
2021/12/23 10:30:23;;;;;;;58.72;28.55;;;;;;;1.33;100.00;101011.44;5011506;28;20052;-71
2021/12/23 10:38:14;;;;;;;66.40;28.58;;;;;;;1.58;100.00;100998.50;5050590;28;19928;-71
2021/12/23 10:40:44;;;;;;;60.53;28.70;;;;;;;1.69;100.00;100990.63;5048203;28;20043;-71
2021/12/23 10:43:19;;;;;;;65.25;29.08;;;;;;;1.66;100.00;100989.25;5051728;28;20607;-72
2021/12/23 10:45:55;;;;;;;64.15;29.40;;;;;;;1.54;100.00;100970.47;5037349;28;20551;-71
2021/12/23 10:48:21;;;;;;;67.70;29.42;;;;;;;1.70;100.00;100960.81;5033369;28;20045;-69
2021/12/23 10:50:51;;;;;;;68.82;28.20;;;;;;;1.61;100.00;100959.56;5029691;28;20121;-73
2021/12/23 10:59:11;;;;;;;65.80;29.60;;;;;;;1.49;100.00;100940.81;5033831;28;20413;-70
2021/12/23 11:02:00;;;;;;;63.67;29.85;;;;;;;1.60;100.00;100933.75;5032201;28;20077;-72
2021/12/23 11:04:26;;;;;;;63.55;28.33;;;;;;;1.69;100.00;100926.94;5015017;28;20041;-69
2021/12/23 11:07:22;;;;;;;62.05;29.27;;;;;;;1.76;100.00;100922.19;5014103;28;20553;-70
2021/12/23 11:10:34;;;;;;;60.08;26.92;;;;;;;1.68;100.00;100925.28;5015868;28;20115;-69
2021/12/23 11:27:27;;;;;;;67.50;31.23;;;;;;;1.90;100.00;100919.22;5015031;28;20564;-71
2021/12/23 11:37:43;;;;;;;66.18;28.75;;;;;;;2.36;100.00;100868.78;5014327;28;20099;-71
2021/12/23 11:40:24;;;;;;;66.68;29.05;;;;;;;2.14;100.00;100864.16;5014082;28;20041;-70
2021/12/23 11:43:13;;;;;;;64.50;29.10;;;;;;;2.30;100.00;100853.63;5014856;28;20482;-70
2021/12/23 11:45:38;;;;;;;64.38;29.20;;;;;;;2.39;100.00;100854.84;5014477;28;20697;-71
2021/12/23 11:48:07;;;;;;;61.75;29.73;;;;;;;2.43;100.00;100854.06;5014457;28;20143;-71
2021/12/23 11:50:41;;;;;;;64.63;30.23;;;;;;;2.44;100.00;100846.81;5014749;28;20543;-70
2021/12/23 11:53:08;;;;;;;66.45;31.02;;;;;;;2.43;100.00;100840.63;5012025;28;20037;-70
2021/12/23 11:55:35;;;;;;;62.50;30.92;;;;;;;2.51;100.00;100842.06;5013324;28;20041;-70
2021/12/23 11:58:02;;;;;;;66.75;31.42;;;;;;;2.53;100.00;100833.72;5014842;28;20046;-71
2021/12/23 12:00:41;;;;;;;57.67;29.58;;;;;;;2.48;100.00;100831.81;5012579;28;20561;-71